sensor_id;sensor_type;location;lat;lon;timestamp;P1;durP1;ratioP1;P2;durP2;ratioP2
77046;SDS011;65977;56.380;44.022;2022-12-11T00:01:30;7.63;;;5.15;;
77046;SDS011;65977;56.380;44.022;2022-12-11T00:03:56;10.63;;;5.55;;
77046;SDS011;65977;56.380;44.022;2022-12-11T00:06:21;10.02;;;6.00;;
77046;SDS011;65977;56.380;44.022;2022-12-11T00:08:51;8.10;;;5.70;;
77046;SDS011;65977;56.380;44.022;2022-12-11T00:11:18;7.75;;;5.53;;
77046;SDS011;65977;56.380;44.022;2022-12-11T00:13:45;9.70;;;6.85;;
77046;SDS011;65977;56.380;44.022;2022-12-11T00:16:10;8.65;;;6.35;;
77046;SDS011;65977;56.380;44.022;2022-12-11T00:18:36;9.52;;;5.53;;
77046;SDS011;65977;56.380;44.022;2022-12-11T00:21:03;10.70;;;7.00;;
77046;SDS011;65977;56.380;44.022;2022-12-11T00:23:31;8.20;;;6.25;;
77046;SDS011;65977;56.380;44.022;2022-12-11T00:25:58;8.35;;;6.25;;
77046;SDS011;65977;56.380;44.022;2022-12-11T00:28:24;10.48;;;7.22;;
77046;SDS011;65977;56.380;44.022;2022-12-11T00:30:49;10.27;;;7.50;;
77046;SDS011;65977;56.380;44.022;2022-12-11T00:33:15;12.93;;;8.23;;
77046;SDS011;65977;56.380;44.022;2022-12-11T00:35:42;11.25;;;7.68;;
77046;SDS011;65977;56.380;44.022;2022-12-11T00:38:16;12.90;;;7.10;;
77046;SDS011;65977;56.380;44.022;2022-12-11T00:40:46;14.90;;;9.45;;
77046;SDS011;65977;56.380;44.022;2022-12-11T00:43:12;12.48;;;8.23;;
77046;SDS011;65977;56.380;44.022;2022-12-11T00:45:40;12.43;;;8.15;;
77046;SDS011;65977;56.380;44.022;2022-12-11T00:48:07;12.60;;;7.43;;
77046;SDS011;65977;56.380;44.022;2022-12-11T00:50:34;13.23;;;8.30;;
77046;SDS011;65977;56.380;44.022;2022-12-11T00:53:01;12.43;;;8.93;;
77046;SDS011;65977;56.380;44.022;2022-12-11T00:55:27;11.32;;;7.53;;
77046;SDS011;65977;56.380;44.022;2022-12-11T00:57:53;12.48;;;7.60;;
77046;SDS011;65977;56.380;44.022;2022-12-11T01:00:20;10.40;;;7.18;;
77046;SDS011;65977;56.380;44.022;2022-12-11T01:02:49;10.80;;;7.18;;
77046;SDS011;65977;56.380;44.022;2022-12-11T01:05:15;9.35;;;6.47;;
77046;SDS011;65977;56.380;44.022;2022-12-11T01:07:41;9.00;;;6.18;;
77046;SDS011;65977;56.380;44.022;2022-12-11T01:10:08;11.00;;;7.32;;
77046;SDS011;65977;56.380;44.022;2022-12-11T01:12:55;10.90;;;6.85;;
77046;SDS011;65977;56.380;44.022;2022-12-11T01:15:23;10.45;;;6.50;;
77046;SDS011;65977;56.380;44.022;2022-12-11T01:17:51;10.00;;;6.82;;
77046;SDS011;65977;56.380;44.022;2022-12-11T01:20:18;10.32;;;6.70;;
77046;SDS011;65977;56.380;44.022;2022-12-11T01:22:44;11.20;;;6.47;;
77046;SDS011;65977;56.380;44.022;2022-12-11T01:25:10;10.90;;;7.25;;
77046;SDS011;65977;56.380;44.022;2022-12-11T01:27:36;12.05;;;7.35;;
77046;SDS011;65977;56.380;44.022;2022-12-11T01:30:03;12.73;;;6.68;;
77046;SDS011;65977;56.380;44.022;2022-12-11T01:32:32;10.60;;;7.05;;
77046;SDS011;65977;56.380;44.022;2022-12-11T01:34:59;9.18;;;7.00;;
77046;SDS011;65977;56.380;44.022;2022-12-11T01:37:24;8.00;;;5.28;;
77046;SDS011;65977;56.380;44.022;2022-12-11T01:39:50;7.80;;;5.82;;
77046;SDS011;65977;56.380;44.022;2022-12-11T01:42:17;8.57;;;5.50;;
77046;SDS011;65977;56.380;44.022;2022-12-11T01:47:09;8.48;;;5.13;;
77046;SDS011;65977;56.380;44.022;2022-12-11T01:49:36;7.43;;;4.70;;
77046;SDS011;65977;56.380;44.022;2022-12-11T01:52:07;7.93;;;5.00;;
77046;SDS011;65977;56.380;44.022;2022-12-11T01:54:43;5.25;;;4.07;;
77046;SDS011;65977;56.380;44.022;2022-12-11T01:57:10;6.18;;;3.75;;
77046;SDS011;65977;56.380;44.022;2022-12-11T01:59:40;7.07;;;5.00;;
77046;SDS011;65977;56.380;44.022;2022-12-11T02:02:19;6.57;;;4.13;;
77046;SDS011;65977;56.380;44.022;2022-12-11T02:04:50;7.20;;;4.22;;
77046;SDS011;65977;56.380;44.022;2022-12-11T02:07:15;5.65;;;4.15;;
77046;SDS011;65977;56.380;44.022;2022-12-11T02:09:41;8.40;;;5.38;;
77046;SDS011;65977;56.380;44.022;2022-12-11T02:18:11;7.55;;;4.70;;
77046;SDS011;65977;56.380;44.022;2022-12-11T02:20:47;7.88;;;4.68;;
77046;SDS011;65977;56.380;44.022;2022-12-11T02:28:48;8.13;;;4.43;;
77046;SDS011;65977;56.380;44.022;2022-12-11T02:31:37;8.65;;;4.70;;
77046;SDS011;65977;56.380;44.022;2022-12-11T02:36:35;4.75;;;2.95;;
77046;SDS011;65977;56.380;44.022;2022-12-11T02:39:04;6.55;;;3.60;;
77046;SDS011;65977;56.380;44.022;2022-12-11T02:41:34;5.97;;;4.15;;
77046;SDS011;65977;56.380;44.022;2022-12-11T02:44:00;7.93;;;4.95;;
77046;SDS011;65977;56.380;44.022;2022-12-11T02:46:28;5.18;;;3.70;;
77046;SDS011;65977;56.380;44.022;2022-12-11T02:48:56;7.60;;;4.68;;
77046;SDS011;65977;56.380;44.022;2022-12-11T02:51:26;7.13;;;4.10;;
77046;SDS011;65977;56.380;44.022;2022-12-11T02:53:56;5.93;;;4.05;;
77046;SDS011;65977;56.380;44.022;2022-12-11T02:56:34;5.10;;;3.50;;
77046;SDS011;65977;56.380;44.022;2022-12-11T02:59:14;6.25;;;4.00;;
77046;SDS011;65977;56.380;44.022;2022-12-11T03:01:44;6.32;;;3.72;;
77046;SDS011;65977;56.380;44.022;2022-12-11T03:04:11;7.75;;;5.68;;
77046;SDS011;65977;56.380;44.022;2022-12-11T03:06:39;5.65;;;4.18;;
77046;SDS011;65977;56.380;44.022;2022-12-11T03:09:08;6.88;;;4.13;;
77046;SDS011;65977;56.380;44.022;2022-12-11T03:11:34;6.72;;;3.92;;
77046;SDS011;65977;56.380;44.022;2022-12-11T03:14:00;5.18;;;3.83;;
77046;SDS011;65977;56.380;44.022;2022-12-11T03:16:33;7.78;;;4.00;;
77046;SDS011;65977;56.380;44.022;2022-12-11T03:19:35;5.45;;;3.30;;
77046;SDS011;65977;56.380;44.022;2022-12-11T03:27:27;6.40;;;3.63;;
77046;SDS011;65977;56.380;44.022;2022-12-11T03:29:59;5.60;;;3.85;;
77046;SDS011;65977;56.380;44.022;2022-12-11T03:32:30;7.88;;;4.85;;
77046;SDS011;65977;56.380;44.022;2022-12-11T03:35:04;6.15;;;4.22;;
77046;SDS011;65977;56.380;44.022;2022-12-11T03:37:36;5.97;;;3.33;;
77046;SDS011;65977;56.380;44.022;2022-12-11T03:40:09;7.68;;;3.65;;
77046;SDS011;65977;56.380;44.022;2022-12-11T03:42:40;6.97;;;4.15;;
77046;SDS011;65977;56.380;44.022;2022-12-11T03:45:08;4.25;;;2.70;;
77046;SDS011;65977;56.380;44.022;2022-12-11T03:47:34;7.15;;;3.67;;
77046;SDS011;65977;56.380;44.022;2022-12-11T03:50:02;6.43;;;3.47;;
77046;SDS011;65977;56.380;44.022;2022-12-11T03:52:31;6.15;;;3.80;;
77046;SDS011;65977;56.380;44.022;2022-12-11T03:54:58;5.55;;;3.55;;
77046;SDS011;65977;56.380;44.022;2022-12-11T03:57:28;5.88;;;3.80;;
77046;SDS011;65977;56.380;44.022;2022-12-11T03:59:57;5.85;;;3.15;;
77046;SDS011;65977;56.380;44.022;2022-12-11T04:02:23;4.97;;;3.60;;
77046;SDS011;65977;56.380;44.022;2022-12-11T04:04:49;5.68;;;3.60;;
77046;SDS011;65977;56.380;44.022;2022-12-11T04:07:14;3.83;;;2.55;;
77046;SDS011;65977;56.380;44.022;2022-12-11T04:09:40;4.75;;;3.35;;
77046;SDS011;65977;56.380;44.022;2022-12-11T04:12:06;4.68;;;2.83;;
77046;SDS011;65977;56.380;44.022;2022-12-11T04:14:31;5.00;;;3.10;;
77046;SDS011;65977;56.380;44.022;2022-12-11T04:17:15;3.45;;;2.75;;
77046;SDS011;65977;56.380;44.022;2022-12-11T04:20:01;5.50;;;2.78;;
77046;SDS011;65977;56.380;44.022;2022-12-11T04:22:45;6.72;;;3.20;;
77046;SDS011;65977;56.380;44.022;2022-12-11T04:25:30;5.47;;;3.10;;
77046;SDS011;65977;56.380;44.022;2022-12-11T04:27:55;6.68;;;3.75;;
77046;SDS011;65977;56.380;44.022;2022-12-11T04:30:22;4.35;;;2.75;;
77046;SDS011;65977;56.380;44.022;2022-12-11T04:32:49;4.93;;;2.90;;
77046;SDS011;65977;56.380;44.022;2022-12-11T04:35:15;5.15;;;2.95;;
77046;SDS011;65977;56.380;44.022;2022-12-11T04:37:42;4.43;;;2.88;;
77046;SDS011;65977;56.380;44.022;2022-12-11T04:40:08;4.85;;;3.42;;
77046;SDS011;65977;56.380;44.022;2022-12-11T04:42:38;4.75;;;2.83;;
77046;SDS011;65977;56.380;44.022;2022-12-11T04:45:04;3.75;;;2.42;;
77046;SDS011;65977;56.380;44.022;2022-12-11T04:47:33;3.47;;;2.20;;
77046;SDS011;65977;56.380;44.022;2022-12-11T04:50:00;3.72;;;2.20;;
77046;SDS011;65977;56.380;44.022;2022-12-11T04:52:25;4.10;;;2.53;;
77046;SDS011;65977;56.380;44.022;2022-12-11T04:54:51;3.42;;;1.88;;
77046;SDS011;65977;56.380;44.022;2022-12-11T04:57:17;3.88;;;2.30;;
77046;SDS011;65977;56.380;44.022;2022-12-11T04:59:44;4.07;;;1.98;;
77046;SDS011;65977;56.380;44.022;2022-12-11T05:02:10;3.65;;;1.73;;
77046;SDS011;65977;56.380;44.022;2022-12-11T05:04:35;4.63;;;2.05;;
77046;SDS011;65977;56.380;44.022;2022-12-11T05:07:01;3.25;;;2.20;;
77046;SDS011;65977;56.380;44.022;2022-12-11T05:09:27;3.25;;;1.90;;
77046;SDS011;65977;56.380;44.022;2022-12-11T05:11:53;2.65;;;1.50;;
77046;SDS011;65977;56.380;44.022;2022-12-11T05:14:18;4.03;;;2.10;;
77046;SDS011;65977;56.380;44.022;2022-12-11T05:16:45;3.50;;;2.17;;
77046;SDS011;65977;56.380;44.022;2022-12-11T05:19:10;3.20;;;2.20;;
77046;SDS011;65977;56.380;44.022;2022-12-11T05:21:36;4.80;;;1.80;;
77046;SDS011;65977;56.380;44.022;2022-12-11T05:24:02;2.65;;;1.70;;
77046;SDS011;65977;56.380;44.022;2022-12-11T05:26:28;4.07;;;2.15;;
77046;SDS011;65977;56.380;44.022;2022-12-11T05:28:54;3.55;;;2.25;;
77046;SDS011;65977;56.380;44.022;2022-12-11T05:31:21;4.10;;;2.70;;
77046;SDS011;65977;56.380;44.022;2022-12-11T05:33:49;2.90;;;1.73;;
77046;SDS011;65977;56.380;44.022;2022-12-11T05:36:17;3.28;;;1.98;;
77046;SDS011;65977;56.380;44.022;2022-12-11T05:38:53;3.42;;;1.88;;
77046;SDS011;65977;56.380;44.022;2022-12-11T05:41:20;4.35;;;1.98;;
77046;SDS011;65977;56.380;44.022;2022-12-11T05:43:47;3.13;;;1.80;;
77046;SDS011;65977;56.380;44.022;2022-12-11T05:46:31;5.50;;;1.92;;
77046;SDS011;65977;56.380;44.022;2022-12-11T05:48:57;3.63;;;1.52;;
77046;SDS011;65977;56.380;44.022;2022-12-11T05:51:25;2.40;;;1.40;;
77046;SDS011;65977;56.380;44.022;2022-12-11T05:53:52;3.03;;;2.40;;
77046;SDS011;65977;56.380;44.022;2022-12-11T05:56:19;2.88;;;1.70;;
77046;SDS011;65977;56.380;44.022;2022-12-11T05:58:52;2.75;;;1.40;;
77046;SDS011;65977;56.380;44.022;2022-12-11T06:01:24;2.67;;;1.77;;
77046;SDS011;65977;56.380;44.022;2022-12-11T06:03:52;2.83;;;1.73;;
77046;SDS011;65977;56.380;44.022;2022-12-11T06:06:19;2.60;;;1.63;;
77046;SDS011;65977;56.380;44.022;2022-12-11T06:08:44;2.85;;;1.58;;
77046;SDS011;65977;56.380;44.022;2022-12-11T06:11:11;2.85;;;1.50;;
77046;SDS011;65977;56.380;44.022;2022-12-11T06:13:40;4.15;;;1.77;;
77046;SDS011;65977;56.380;44.022;2022-12-11T06:16:06;2.72;;;1.55;;
77046;SDS011;65977;56.380;44.022;2022-12-11T06:18:36;2.78;;;2.20;;
77046;SDS011;65977;56.380;44.022;2022-12-11T06:21:09;2.60;;;1.70;;
77046;SDS011;65977;56.380;44.022;2022-12-11T06:23:37;2.55;;;1.73;;
77046;SDS011;65977;56.380;44.022;2022-12-11T06:26:02;3.15;;;1.95;;
77046;SDS011;65977;56.380;44.022;2022-12-11T06:28:28;1.98;;;1.40;;
77046;SDS011;65977;56.380;44.022;2022-12-11T06:30:57;2.83;;;1.70;;
77046;SDS011;65977;56.380;44.022;2022-12-11T06:33:23;3.60;;;2.05;;
77046;SDS011;65977;56.380;44.022;2022-12-11T06:35:49;2.13;;;1.20;;
77046;SDS011;65977;56.380;44.022;2022-12-11T06:38:16;2.88;;;1.77;;
77046;SDS011;65977;56.380;44.022;2022-12-11T06:40:42;2.03;;;1.33;;
77046;SDS011;65977;56.380;44.022;2022-12-11T06:43:07;2.10;;;1.50;;
77046;SDS011;65977;56.380;44.022;2022-12-11T06:45:33;2.35;;;1.45;;
77046;SDS011;65977;56.380;44.022;2022-12-11T06:48:00;2.00;;;1.48;;
77046;SDS011;65977;56.380;44.022;2022-12-11T06:50:26;6.15;;;2.55;;
77046;SDS011;65977;56.380;44.022;2022-12-11T06:52:51;4.00;;;2.08;;
77046;SDS011;65977;56.380;44.022;2022-12-11T06:55:17;2.55;;;1.42;;
77046;SDS011;65977;56.380;44.022;2022-12-11T06:57:43;1.85;;;1.25;;
77046;SDS011;65977;56.380;44.022;2022-12-11T07:00:09;2.78;;;1.52;;
77046;SDS011;65977;56.380;44.022;2022-12-11T07:02:35;3.35;;;1.98;;
77046;SDS011;65977;56.380;44.022;2022-12-11T07:05:00;3.17;;;2.45;;
77046;SDS011;65977;56.380;44.022;2022-12-11T07:07:28;2.40;;;1.58;;
77046;SDS011;65977;56.380;44.022;2022-12-11T07:09:54;2.65;;;1.65;;
77046;SDS011;65977;56.380;44.022;2022-12-11T07:12:19;3.08;;;2.00;;
77046;SDS011;65977;56.380;44.022;2022-12-11T07:14:45;2.65;;;1.63;;
77046;SDS011;65977;56.380;44.022;2022-12-11T07:17:11;2.85;;;2.47;;
77046;SDS011;65977;56.380;44.022;2022-12-11T07:19:37;4.45;;;1.98;;
77046;SDS011;65977;56.380;44.022;2022-12-11T07:22:03;2.80;;;1.65;;
77046;SDS011;65977;56.380;44.022;2022-12-11T07:24:28;2.80;;;1.55;;
77046;SDS011;65977;56.380;44.022;2022-12-11T07:26:54;3.05;;;1.90;;
77046;SDS011;65977;56.380;44.022;2022-12-11T07:29:19;4.30;;;2.30;;
77046;SDS011;65977;56.380;44.022;2022-12-11T07:31:45;3.17;;;2.00;;
77046;SDS011;65977;56.380;44.022;2022-12-11T07:34:11;2.83;;;1.85;;
77046;SDS011;65977;56.380;44.022;2022-12-11T07:36:38;2.90;;;1.98;;
77046;SDS011;65977;56.380;44.022;2022-12-11T07:39:04;3.05;;;1.98;;
77046;SDS011;65977;56.380;44.022;2022-12-11T07:41:29;3.30;;;2.15;;
77046;SDS011;65977;56.380;44.022;2022-12-11T07:43:56;4.40;;;2.03;;
77046;SDS011;65977;56.380;44.022;2022-12-11T07:46:24;5.78;;;2.30;;
77046;SDS011;65977;56.380;44.022;2022-12-11T07:48:52;3.47;;;1.73;;
77046;SDS011;65977;56.380;44.022;2022-12-11T07:51:25;2.38;;;1.60;;
77046;SDS011;65977;56.380;44.022;2022-12-11T07:53:59;3.47;;;1.88;;
77046;SDS011;65977;56.380;44.022;2022-12-11T07:56:27;4.28;;;2.20;;
77046;SDS011;65977;56.380;44.022;2022-12-11T07:58:53;4.53;;;2.33;;
77046;SDS011;65977;56.380;44.022;2022-12-11T08:01:20;3.47;;;1.80;;
77046;SDS011;65977;56.380;44.022;2022-12-11T08:03:48;2.33;;;1.25;;
77046;SDS011;65977;56.380;44.022;2022-12-11T08:06:17;3.50;;;2.03;;
77046;SDS011;65977;56.380;44.022;2022-12-11T08:08:45;4.97;;;2.35;;
77046;SDS011;65977;56.380;44.022;2022-12-11T08:11:12;3.72;;;2.47;;
77046;SDS011;65977;56.380;44.022;2022-12-11T08:13:39;3.03;;;2.13;;
77046;SDS011;65977;56.380;44.022;2022-12-11T08:16:06;4.32;;;1.85;;
77046;SDS011;65977;56.380;44.022;2022-12-11T08:18:33;4.15;;;2.00;;
77046;SDS011;65977;56.380;44.022;2022-12-11T08:21:04;3.20;;;1.83;;
77046;SDS011;65977;56.380;44.022;2022-12-11T08:23:34;2.60;;;1.77;;
77046;SDS011;65977;56.380;44.022;2022-12-11T08:26:00;4.72;;;2.72;;
77046;SDS011;65977;56.380;44.022;2022-12-11T08:28:30;5.93;;;2.03;;
77046;SDS011;65977;56.380;44.022;2022-12-11T08:30:56;4.50;;;2.40;;
77046;SDS011;65977;56.380;44.022;2022-12-11T08:33:22;3.17;;;1.95;;
77046;SDS011;65977;56.380;44.022;2022-12-11T08:35:48;3.92;;;2.15;;
77046;SDS011;65977;56.380;44.022;2022-12-11T08:38:14;4.72;;;2.30;;
77046;SDS011;65977;56.380;44.022;2022-12-11T08:40:39;5.60;;;2.30;;
77046;SDS011;65977;56.380;44.022;2022-12-11T08:43:05;8.18;;;2.58;;
77046;SDS011;65977;56.380;44.022;2022-12-11T08:45:31;7.00;;;2.67;;
77046;SDS011;65977;56.380;44.022;2022-12-11T08:47:57;4.28;;;1.77;;
77046;SDS011;65977;56.380;44.022;2022-12-11T08:50:23;5.43;;;3.10;;
77046;SDS011;65977;56.380;44.022;2022-12-11T08:52:49;4.05;;;1.85;;
77046;SDS011;65977;56.380;44.022;2022-12-11T08:55:15;5.18;;;2.72;;
77046;SDS011;65977;56.380;44.022;2022-12-11T08:57:41;4.18;;;2.38;;
77046;SDS011;65977;56.380;44.022;2022-12-11T09:00:07;4.43;;;2.70;;
77046;SDS011;65977;56.380;44.022;2022-12-11T09:02:36;4.82;;;2.30;;
77046;SDS011;65977;56.380;44.022;2022-12-11T09:05:02;4.05;;;2.45;;
77046;SDS011;65977;56.380;44.022;2022-12-11T09:07:32;5.72;;;2.83;;
77046;SDS011;65977;56.380;44.022;2022-12-11T09:09:58;3.63;;;2.00;;
77046;SDS011;65977;56.380;44.022;2022-12-11T09:12:25;4.88;;;2.63;;
77046;SDS011;65977;56.380;44.022;2022-12-11T09:14:51;4.20;;;2.60;;
77046;SDS011;65977;56.380;44.022;2022-12-11T09:17:17;6.22;;;2.92;;
77046;SDS011;65977;56.380;44.022;2022-12-11T09:19:42;6.53;;;2.85;;
77046;SDS011;65977;56.380;44.022;2022-12-11T09:22:08;3.72;;;2.40;;
77046;SDS011;65977;56.380;44.022;2022-12-11T09:24:36;7.40;;;2.42;;
77046;SDS011;65977;56.380;44.022;2022-12-11T09:27:02;4.53;;;2.65;;
77046;SDS011;65977;56.380;44.022;2022-12-11T09:29:28;4.03;;;3.03;;
77046;SDS011;65977;56.380;44.022;2022-12-11T09:31:54;5.07;;;2.70;;
77046;SDS011;65977;56.380;44.022;2022-12-11T09:34:20;2.60;;;1.73;;
77046;SDS011;65977;56.380;44.022;2022-12-11T09:36:46;3.05;;;1.88;;
77046;SDS011;65977;56.380;44.022;2022-12-11T09:39:12;3.60;;;2.30;;
77046;SDS011;65977;56.380;44.022;2022-12-11T09:45:02;2.92;;;1.98;;
77046;SDS011;65977;56.380;44.022;2022-12-11T09:47:26;6.60;;;2.78;;
77046;SDS011;65977;56.380;44.022;2022-12-11T09:50:03;6.55;;;4.45;;
77046;SDS011;65977;56.380;44.022;2022-12-11T09:55:15;4.47;;;2.33;;
77046;SDS011;65977;56.380;44.022;2022-12-11T09:57:50;6.22;;;2.53;;
77046;SDS011;65977;56.380;44.022;2022-12-11T10:00:25;4.32;;;2.72;;
77046;SDS011;65977;56.380;44.022;2022-12-11T10:11:25;5.80;;;3.00;;
77046;SDS011;65977;56.380;44.022;2022-12-11T16:28:44;6.97;;;4.75;;
77046;SDS011;65977;56.380;44.022;2022-12-11T16:31:11;8.63;;;4.75;;
77046;SDS011;65977;56.380;44.022;2022-12-11T16:33:37;5.95;;;4.03;;
77046;SDS011;65977;56.380;44.022;2022-12-11T16:36:16;5.93;;;4.32;;
77046;SDS011;65977;56.380;44.022;2022-12-11T16:38:44;6.53;;;4.78;;
77046;SDS011;65977;56.380;44.022;2022-12-11T16:41:10;7.20;;;4.57;;
77046;SDS011;65977;56.380;44.022;2022-12-11T16:43:36;9.57;;;5.40;;
77046;SDS011;65977;56.380;44.022;2022-12-11T16:46:02;6.35;;;4.32;;
77046;SDS011;65977;56.380;44.022;2022-12-11T16:48:28;5.55;;;3.95;;
77046;SDS011;65977;56.380;44.022;2022-12-11T16:50:53;5.55;;;4.38;;
77046;SDS011;65977;56.380;44.022;2022-12-11T16:53:20;6.05;;;3.70;;
77046;SDS011;65977;56.380;44.022;2022-12-11T16:55:46;8.32;;;4.88;;
77046;SDS011;65977;56.380;44.022;2022-12-11T16:58:11;6.07;;;4.47;;
77046;SDS011;65977;56.380;44.022;2022-12-11T17:00:46;6.90;;;4.78;;
77046;SDS011;65977;56.380;44.022;2022-12-11T17:03:13;4.68;;;3.58;;
77046;SDS011;65977;56.380;44.022;2022-12-11T17:05:39;9.95;;;5.00;;
77046;SDS011;65977;56.380;44.022;2022-12-11T17:08:05;7.28;;;4.65;;
77046;SDS011;65977;56.380;44.022;2022-12-11T17:10:31;8.25;;;5.45;;
77046;SDS011;65977;56.380;44.022;2022-12-11T17:12:57;7.28;;;4.32;;
77046;SDS011;65977;56.380;44.022;2022-12-11T17:15:23;7.32;;;4.45;;
77046;SDS011;65977;56.380;44.022;2022-12-11T17:17:48;8.68;;;5.85;;
77046;SDS011;65977;56.380;44.022;2022-12-11T17:20:14;8.70;;;5.22;;
77046;SDS011;65977;56.380;44.022;2022-12-11T17:22:40;9.32;;;6.00;;
77046;SDS011;65977;56.380;44.022;2022-12-11T17:25:06;28.10;;;15.73;;
77046;SDS011;65977;56.380;44.022;2022-12-11T17:27:32;28.17;;;18.30;;
77046;SDS011;65977;56.380;44.022;2022-12-11T17:29:57;13.80;;;7.47;;
77046;SDS011;65977;56.380;44.022;2022-12-11T17:32:23;12.85;;;8.32;;
77046;SDS011;65977;56.380;44.022;2022-12-11T17:34:49;12.77;;;8.25;;
77046;SDS011;65977;56.380;44.022;2022-12-11T17:37:15;12.18;;;6.90;;
77046;SDS011;65977;56.380;44.022;2022-12-11T17:39:41;11.88;;;6.40;;
77046;SDS011;65977;56.380;44.022;2022-12-11T17:42:07;11.18;;;6.50;;
77046;SDS011;65977;56.380;44.022;2022-12-11T17:44:33;11.00;;;7.45;;
77046;SDS011;65977;56.380;44.022;2022-12-11T17:46:59;11.63;;;7.93;;
77046;SDS011;65977;56.380;44.022;2022-12-11T17:49:25;16.02;;;9.60;;
77046;SDS011;65977;56.380;44.022;2022-12-11T17:51:50;19.63;;;11.48;;
77046;SDS011;65977;56.380;44.022;2022-12-11T17:54:19;18.38;;;11.15;;
77046;SDS011;65977;56.380;44.022;2022-12-11T17:56:46;15.98;;;11.65;;
77046;SDS011;65977;56.380;44.022;2022-12-11T17:59:12;20.08;;;12.00;;
77046;SDS011;65977;56.380;44.022;2022-12-11T18:01:37;20.50;;;11.32;;
77046;SDS011;65977;56.380;44.022;2022-12-11T18:04:03;15.60;;;9.77;;
77046;SDS011;65977;56.380;44.022;2022-12-11T18:06:29;14.77;;;10.35;;
77046;SDS011;65977;56.380;44.022;2022-12-11T18:08:55;15.20;;;9.05;;
77046;SDS011;65977;56.380;44.022;2022-12-11T18:11:21;16.92;;;9.35;;
77046;SDS011;65977;56.380;44.022;2022-12-11T18:13:48;16.48;;;9.77;;
77046;SDS011;65977;56.380;44.022;2022-12-11T18:16:19;16.90;;;11.13;;
77046;SDS011;65977;56.380;44.022;2022-12-11T18:18:48;16.83;;;11.20;;
77046;SDS011;65977;56.380;44.022;2022-12-11T18:21:15;17.38;;;10.32;;
77046;SDS011;65977;56.380;44.022;2022-12-11T18:23:43;16.17;;;9.95;;
77046;SDS011;65977;56.380;44.022;2022-12-11T18:26:10;15.63;;;9.93;;
77046;SDS011;65977;56.380;44.022;2022-12-11T18:28:38;14.95;;;8.82;;
77046;SDS011;65977;56.380;44.022;2022-12-11T18:31:04;15.05;;;9.23;;
77046;SDS011;65977;56.380;44.022;2022-12-11T18:33:33;13.38;;;7.28;;
77046;SDS011;65977;56.380;44.022;2022-12-11T18:36:01;12.55;;;7.80;;
77046;SDS011;65977;56.380;44.022;2022-12-11T18:38:27;13.35;;;8.60;;
77046;SDS011;65977;56.380;44.022;2022-12-11T18:40:52;12.65;;;7.25;;
77046;SDS011;65977;56.380;44.022;2022-12-11T18:43:18;12.93;;;7.75;;
77046;SDS011;65977;56.380;44.022;2022-12-11T18:45:44;14.68;;;8.07;;
77046;SDS011;65977;56.380;44.022;2022-12-11T18:48:09;15.77;;;8.50;;
77046;SDS011;65977;56.380;44.022;2022-12-11T18:50:36;15.02;;;9.25;;
77046;SDS011;65977;56.380;44.022;2022-12-11T18:53:02;15.18;;;9.20;;
77046;SDS011;65977;56.380;44.022;2022-12-11T18:55:28;19.48;;;9.18;;
77046;SDS011;65977;56.380;44.022;2022-12-11T18:57:55;12.63;;;7.68;;
77046;SDS011;65977;56.380;44.022;2022-12-11T19:00:20;11.27;;;6.85;;
77046;SDS011;65977;56.380;44.022;2022-12-11T19:02:49;13.55;;;7.45;;
77046;SDS011;65977;56.380;44.022;2022-12-11T19:05:16;12.15;;;7.75;;
77046;SDS011;65977;56.380;44.022;2022-12-11T19:07:42;11.63;;;7.30;;
77046;SDS011;65977;56.380;44.022;2022-12-11T19:10:07;12.98;;;8.02;;
77046;SDS011;65977;56.380;44.022;2022-12-11T19:12:34;14.18;;;8.63;;
77046;SDS011;65977;56.380;44.022;2022-12-11T19:15:00;14.43;;;9.23;;
77046;SDS011;65977;56.380;44.022;2022-12-11T19:17:26;13.40;;;6.32;;
77046;SDS011;65977;56.380;44.022;2022-12-11T19:19:52;13.73;;;8.10;;
77046;SDS011;65977;56.380;44.022;2022-12-11T19:22:18;16.02;;;8.13;;
77046;SDS011;65977;56.380;44.022;2022-12-11T19:24:43;13.23;;;9.32;;
77046;SDS011;65977;56.380;44.022;2022-12-11T19:27:09;12.88;;;7.25;;
77046;SDS011;65977;56.380;44.022;2022-12-11T19:29:35;14.98;;;9.98;;
77046;SDS011;65977;56.380;44.022;2022-12-11T19:32:01;16.80;;;10.10;;
77046;SDS011;65977;56.380;44.022;2022-12-11T19:34:28;15.90;;;9.25;;
77046;SDS011;65977;56.380;44.022;2022-12-11T19:36:53;13.63;;;9.38;;
77046;SDS011;65977;56.380;44.022;2022-12-11T19:39:20;16.63;;;8.75;;
77046;SDS011;65977;56.380;44.022;2022-12-11T19:41:45;13.15;;;8.38;;
77046;SDS011;65977;56.380;44.022;2022-12-11T19:44:11;16.67;;;8.88;;
77046;SDS011;65977;56.380;44.022;2022-12-11T19:46:37;11.68;;;7.47;;
77046;SDS011;65977;56.380;44.022;2022-12-11T19:49:03;12.85;;;8.45;;
77046;SDS011;65977;56.380;44.022;2022-12-11T19:51:33;11.82;;;6.93;;
77046;SDS011;65977;56.380;44.022;2022-12-11T19:54:03;9.90;;;7.60;;
77046;SDS011;65977;56.380;44.022;2022-12-11T19:56:30;10.88;;;6.72;;
77046;SDS011;65977;56.380;44.022;2022-12-11T19:58:57;12.55;;;7.65;;
77046;SDS011;65977;56.380;44.022;2022-12-11T20:01:25;7.95;;;5.47;;
77046;SDS011;65977;56.380;44.022;2022-12-11T20:03:55;12.43;;;7.22;;
77046;SDS011;65977;56.380;44.022;2022-12-11T20:06:23;9.23;;;6.03;;
77046;SDS011;65977;56.380;44.022;2022-12-11T20:08:51;9.23;;;6.60;;
77046;SDS011;65977;56.380;44.022;2022-12-11T20:11:17;10.70;;;7.03;;
77046;SDS011;65977;56.380;44.022;2022-12-11T20:13:43;11.68;;;7.38;;
77046;SDS011;65977;56.380;44.022;2022-12-11T20:16:10;10.85;;;7.43;;
77046;SDS011;65977;56.380;44.022;2022-12-11T20:18:37;10.80;;;5.70;;
77046;SDS011;65977;56.380;44.022;2022-12-11T20:21:06;9.52;;;6.25;;
77046;SDS011;65977;56.380;44.022;2022-12-11T20:23:33;10.10;;;6.90;;
77046;SDS011;65977;56.380;44.022;2022-12-11T20:26:04;10.20;;;5.50;;
77046;SDS011;65977;56.380;44.022;2022-12-11T20:28:33;13.32;;;7.35;;
77046;SDS011;65977;56.380;44.022;2022-12-11T20:31:05;10.05;;;6.85;;
77046;SDS011;65977;56.380;44.022;2022-12-11T20:33:33;10.32;;;5.93;;
77046;SDS011;65977;56.380;44.022;2022-12-11T20:35:59;11.05;;;6.60;;
77046;SDS011;65977;56.380;44.022;2022-12-11T20:38:25;15.00;;;6.50;;
77046;SDS011;65977;56.380;44.022;2022-12-11T20:40:51;10.65;;;6.93;;
77046;SDS011;65977;56.380;44.022;2022-12-11T20:43:17;10.23;;;6.07;;
77046;SDS011;65977;56.380;44.022;2022-12-11T20:45:46;11.98;;;6.22;;
77046;SDS011;65977;56.380;44.022;2022-12-11T20:48:12;13.65;;;6.90;;
77046;SDS011;65977;56.380;44.022;2022-12-11T20:50:38;9.88;;;5.47;;
77046;SDS011;65977;56.380;44.022;2022-12-11T20:53:04;10.43;;;5.70;;
77046;SDS011;65977;56.380;44.022;2022-12-11T20:55:29;7.38;;;5.78;;
77046;SDS011;65977;56.380;44.022;2022-12-11T20:57:55;10.07;;;5.68;;
77046;SDS011;65977;56.380;44.022;2022-12-11T21:00:20;10.80;;;5.72;;
77046;SDS011;65977;56.380;44.022;2022-12-11T21:02:48;8.10;;;4.82;;
77046;SDS011;65977;56.380;44.022;2022-12-11T21:05:14;10.45;;;6.43;;
77046;SDS011;65977;56.380;44.022;2022-12-11T21:07:40;7.55;;;5.15;;
77046;SDS011;65977;56.380;44.022;2022-12-11T21:10:06;8.25;;;5.72;;
77046;SDS011;65977;56.380;44.022;2022-12-11T21:12:32;8.75;;;5.15;;
77046;SDS011;65977;56.380;44.022;2022-12-11T21:14:58;8.77;;;6.00;;
77046;SDS011;65977;56.380;44.022;2022-12-11T21:17:23;8.70;;;5.18;;
77046;SDS011;65977;56.380;44.022;2022-12-11T21:19:49;7.88;;;5.45;;
77046;SDS011;65977;56.380;44.022;2022-12-11T21:22:15;8.23;;;5.10;;
77046;SDS011;65977;56.380;44.022;2022-12-11T21:24:41;7.50;;;4.82;;